Terminal Aerodrome Forecast
Issued by NWS

Home | Current Version | Previous Version | Text Only | Print | Product List | Glossary On
Versions: 1 2 3 4 5 6 7 8 9 10 11 12 13 14 15 16 17
437
FTUS43 KILX 091130
TAFBMI
TAF
KBMI 091130Z 0912/1012 29010KT P6SM OVC030
     FM092200 30007KT P6SM BKN060
     FM100100 28005KT P6SM BKN080=

USA.gov is the U.S. government's official web portal to all federal, state and local government web resources and services.